sensor_id;sensor_type;location;lat;lon;timestamp;P1;durP1;ratioP1;P2;durP2;ratioP2
29814;SDS011;16708;50.426;7.664;2024-02-04T00:03:59;2.50;;;1.60;;
29814;SDS011;16708;50.426;7.664;2024-02-04T00:08:53;2.40;;;1.70;;
29814;SDS011;16708;50.426;7.664;2024-02-04T00:13:48;4.20;;;1.70;;
29814;SDS011;16708;50.426;7.664;2024-02-04T00:18:41;4.10;;;1.50;;
29814;SDS011;16708;50.426;7.664;2024-02-04T00:23:36;2.60;;;1.60;;
29814;SDS011;16708;50.426;7.664;2024-02-04T00:28:30;2.80;;;1.50;;
29814;SDS011;16708;50.426;7.664;2024-02-04T00:33:25;1.70;;;1.40;;
29814;SDS011;16708;50.426;7.664;2024-02-04T00:38:19;2.60;;;1.60;;
29814;SDS011;16708;50.426;7.664;2024-02-04T00:43:13;2.80;;;1.50;;
29814;SDS011;16708;50.426;7.664;2024-02-04T00:48:09;2.40;;;1.90;;
29814;SDS011;16708;50.426;7.664;2024-02-04T00:53:02;2.90;;;1.60;;
29814;SDS011;16708;50.426;7.664;2024-02-04T00:57:56;4.30;;;1.50;;
29814;SDS011;16708;50.426;7.664;2024-02-04T01:02:51;2.40;;;1.40;;
29814;SDS011;16708;50.426;7.664;2024-02-04T01:07:45;2.70;;;1.60;;
29814;SDS011;16708;50.426;7.664;2024-02-04T01:17:33;4.60;;;2.20;;
29814;SDS011;16708;50.426;7.664;2024-02-04T01:22:28;3.50;;;2.00;;
29814;SDS011;16708;50.426;7.664;2024-02-04T01:27:22;4.20;;;2.00;;
29814;SDS011;16708;50.426;7.664;2024-02-04T01:32:16;4.60;;;2.60;;
29814;SDS011;16708;50.426;7.664;2024-02-04T01:37:09;7.50;;;3.60;;
29814;SDS011;16708;50.426;7.664;2024-02-04T01:42:03;6.40;;;3.90;;
29814;SDS011;16708;50.426;7.664;2024-02-04T01:46:58;5.00;;;3.30;;
29814;SDS011;16708;50.426;7.664;2024-02-04T01:56:46;5.70;;;3.00;;
29814;SDS011;16708;50.426;7.664;2024-02-04T02:01:40;4.90;;;2.70;;
29814;SDS011;16708;50.426;7.664;2024-02-04T02:06:34;4.60;;;2.90;;
29814;SDS011;16708;50.426;7.664;2024-02-04T02:11:28;4.60;;;2.80;;
29814;SDS011;16708;50.426;7.664;2024-02-04T02:16:22;5.60;;;3.00;;
29814;SDS011;16708;50.426;7.664;2024-02-04T02:21:16;4.80;;;2.90;;
29814;SDS011;16708;50.426;7.664;2024-02-04T02:26:10;5.80;;;3.00;;
29814;SDS011;16708;50.426;7.664;2024-02-04T02:31:05;5.40;;;3.00;;
29814;SDS011;16708;50.426;7.664;2024-02-04T02:35:59;4.20;;;2.20;;
29814;SDS011;16708;50.426;7.664;2024-02-04T02:40:53;3.40;;;2.00;;
29814;SDS011;16708;50.426;7.664;2024-02-04T02:45:47;1.50;;;1.10;;
29814;SDS011;16708;50.426;7.664;2024-02-04T02:50:41;1.70;;;1.10;;
29814;SDS011;16708;50.426;7.664;2024-02-04T02:55:36;1.40;;;0.90;;
29814;SDS011;16708;50.426;7.664;2024-02-04T03:00:30;1.70;;;0.80;;
29814;SDS011;16708;50.426;7.664;2024-02-04T03:05:24;1.70;;;1.00;;
29814;SDS011;16708;50.426;7.664;2024-02-04T03:10:19;1.90;;;0.80;;
29814;SDS011;16708;50.426;7.664;2024-02-04T03:15:13;3.00;;;0.90;;
29814;SDS011;16708;50.426;7.664;2024-02-04T03:20:07;0.80;;;0.60;;
29814;SDS011;16708;50.426;7.664;2024-02-04T03:25:02;1.00;;;0.60;;
29814;SDS011;16708;50.426;7.664;2024-02-04T03:29:55;0.80;;;0.50;;
29814;SDS011;16708;50.426;7.664;2024-02-04T03:34:49;1.80;;;0.50;;
29814;SDS011;16708;50.426;7.664;2024-02-04T03:39:43;1.00;;;0.70;;
29814;SDS011;16708;50.426;7.664;2024-02-04T03:44:38;0.50;;;0.40;;
29814;SDS011;16708;50.426;7.664;2024-02-04T03:49:31;0.70;;;0.40;;
29814;SDS011;16708;50.426;7.664;2024-02-04T03:54:26;0.90;;;0.50;;
29814;SDS011;16708;50.426;7.664;2024-02-04T04:04:14;1.20;;;0.50;;
29814;SDS011;16708;50.426;7.664;2024-02-04T04:09:09;0.50;;;0.50;;
29814;SDS011;16708;50.426;7.664;2024-02-04T04:14:01;1.00;;;0.60;;
29814;SDS011;16708;50.426;7.664;2024-02-04T04:23:48;0.80;;;0.50;;
29814;SDS011;16708;50.426;7.664;2024-02-04T04:28:41;1.70;;;0.60;;
29814;SDS011;16708;50.426;7.664;2024-02-04T04:33:36;2.70;;;0.60;;
29814;SDS011;16708;50.426;7.664;2024-02-04T04:38:31;0.90;;;0.50;;
29814;SDS011;16708;50.426;7.664;2024-02-04T04:43:25;1.10;;;0.50;;
29814;SDS011;16708;50.426;7.664;2024-02-04T04:48:19;0.80;;;0.60;;
29814;SDS011;16708;50.426;7.664;2024-02-04T04:53:13;0.70;;;0.40;;
29814;SDS011;16708;50.426;7.664;2024-02-04T04:58:08;0.40;;;0.30;;
29814;SDS011;16708;50.426;7.664;2024-02-04T05:03:01;1.50;;;0.40;;
29814;SDS011;16708;50.426;7.664;2024-02-04T05:07:55;0.60;;;0.40;;
29814;SDS011;16708;50.426;7.664;2024-02-04T05:12:50;1.00;;;0.40;;
29814;SDS011;16708;50.426;7.664;2024-02-04T05:17:44;1.00;;;0.50;;
29814;SDS011;16708;50.426;7.664;2024-02-04T05:22:38;2.10;;;0.60;;
29814;SDS011;16708;50.426;7.664;2024-02-04T05:27:32;0.70;;;0.50;;
29814;SDS011;16708;50.426;7.664;2024-02-04T05:32:26;0.60;;;0.40;;
29814;SDS011;16708;50.426;7.664;2024-02-04T05:37:20;2.80;;;0.50;;
29814;SDS011;16708;50.426;7.664;2024-02-04T05:42:14;2.30;;;0.40;;
29814;SDS011;16708;50.426;7.664;2024-02-04T05:47:07;1.60;;;0.40;;
29814;SDS011;16708;50.426;7.664;2024-02-04T05:52:01;1.20;;;0.40;;
29814;SDS011;16708;50.426;7.664;2024-02-04T05:56:55;2.10;;;0.50;;
29814;SDS011;16708;50.426;7.664;2024-02-04T06:01:49;2.00;;;0.50;;
29814;SDS011;16708;50.426;7.664;2024-02-04T06:06:43;0.90;;;0.50;;
29814;SDS011;16708;50.426;7.664;2024-02-04T06:11:37;0.70;;;0.50;;
29814;SDS011;16708;50.426;7.664;2024-02-04T06:16:30;0.70;;;0.50;;
29814;SDS011;16708;50.426;7.664;2024-02-04T06:21:24;2.10;;;0.60;;
29814;SDS011;16708;50.426;7.664;2024-02-04T06:26:18;1.40;;;0.60;;
29814;SDS011;16708;50.426;7.664;2024-02-04T06:31:16;1.20;;;0.80;;
29814;SDS011;16708;50.426;7.664;2024-02-04T06:36:05;2.80;;;0.50;;
29814;SDS011;16708;50.426;7.664;2024-02-04T06:40:59;1.00;;;0.60;;
29814;SDS011;16708;50.426;7.664;2024-02-04T06:45:53;4.00;;;0.60;;
29814;SDS011;16708;50.426;7.664;2024-02-04T06:50:47;0.70;;;0.40;;
29814;SDS011;16708;50.426;7.664;2024-02-04T06:55:40;1.10;;;0.60;;
29814;SDS011;16708;50.426;7.664;2024-02-04T07:34:56;0.90;;;0.50;;
29814;SDS011;16708;50.426;7.664;2024-02-04T07:39:50;0.70;;;0.50;;
29814;SDS011;16708;50.426;7.664;2024-02-04T07:44:44;1.10;;;0.40;;
29814;SDS011;16708;50.426;7.664;2024-02-04T07:49:38;0.30;;;0.30;;
29814;SDS011;16708;50.426;7.664;2024-02-04T07:54:32;3.40;;;0.60;;
29814;SDS011;16708;50.426;7.664;2024-02-04T07:59:27;0.40;;;0.30;;
29814;SDS011;16708;50.426;7.664;2024-02-04T08:04:21;0.60;;;0.40;;
29814;SDS011;16708;50.426;7.664;2024-02-04T08:09:15;0.90;;;0.40;;
29814;SDS011;16708;50.426;7.664;2024-02-04T08:19:01;0.80;;;0.40;;
29814;SDS011;16708;50.426;7.664;2024-02-04T08:23:55;0.70;;;0.50;;
29814;SDS011;16708;50.426;7.664;2024-02-04T08:33:43;1.60;;;0.50;;
29814;SDS011;16708;50.426;7.664;2024-02-04T08:38:37;1.10;;;0.50;;
29814;SDS011;16708;50.426;7.664;2024-02-04T08:48:25;0.40;;;0.40;;
29814;SDS011;16708;50.426;7.664;2024-02-04T08:53:20;0.40;;;0.30;;
29814;SDS011;16708;50.426;7.664;2024-02-04T08:58:14;1.40;;;0.50;;
29814;SDS011;16708;50.426;7.664;2024-02-04T09:03:08;0.60;;;0.40;;
29814;SDS011;16708;50.426;7.664;2024-02-04T09:08:02;0.50;;;0.50;;
29814;SDS011;16708;50.426;7.664;2024-02-04T09:12:56;0.60;;;0.40;;
29814;SDS011;16708;50.426;7.664;2024-02-04T09:17:50;0.20;;;0.20;;
29814;SDS011;16708;50.426;7.664;2024-02-04T09:22:44;1.80;;;0.40;;
29814;SDS011;16708;50.426;7.664;2024-02-04T09:27:38;2.00;;;0.40;;
29814;SDS011;16708;50.426;7.664;2024-02-04T09:32:33;0.80;;;0.40;;
29814;SDS011;16708;50.426;7.664;2024-02-04T09:37:27;0.60;;;0.50;;
29814;SDS011;16708;50.426;7.664;2024-02-04T09:42:21;1.10;;;0.40;;
29814;SDS011;16708;50.426;7.664;2024-02-04T09:47:14;1.50;;;0.30;;
29814;SDS011;16708;50.426;7.664;2024-02-04T09:52:09;1.40;;;0.40;;
29814;SDS011;16708;50.426;7.664;2024-02-04T09:57:02;2.30;;;0.50;;
29814;SDS011;16708;50.426;7.664;2024-02-04T10:01:58;1.00;;;0.30;;
29814;SDS011;16708;50.426;7.664;2024-02-04T10:06:54;2.30;;;0.60;;
29814;SDS011;16708;50.426;7.664;2024-02-04T10:11:45;1.90;;;0.40;;
29814;SDS011;16708;50.426;7.664;2024-02-04T10:16:39;3.00;;;0.50;;
29814;SDS011;16708;50.426;7.664;2024-02-04T10:26:28;1.10;;;0.40;;
29814;SDS011;16708;50.426;7.664;2024-02-04T10:31:22;0.80;;;0.40;;
29814;SDS011;16708;50.426;7.664;2024-02-04T10:36:16;1.30;;;0.40;;
29814;SDS011;16708;50.426;7.664;2024-02-04T10:41:10;0.40;;;0.30;;
29814;SDS011;16708;50.426;7.664;2024-02-04T10:46:04;0.70;;;0.40;;
29814;SDS011;16708;50.426;7.664;2024-02-04T10:50:58;1.50;;;0.80;;
29814;SDS011;16708;50.426;7.664;2024-02-04T10:55:52;1.70;;;0.50;;
29814;SDS011;16708;50.426;7.664;2024-02-04T11:00:48;1.30;;;0.50;;
29814;SDS011;16708;50.426;7.664;2024-02-04T11:05:41;0.90;;;0.40;;
29814;SDS011;16708;50.426;7.664;2024-02-04T11:10:35;1.30;;;0.40;;
29814;SDS011;16708;50.426;7.664;2024-02-04T11:25:17;3.80;;;0.80;;
29814;SDS011;16708;50.426;7.664;2024-02-04T11:30:09;2.20;;;0.40;;
29814;SDS011;16708;50.426;7.664;2024-02-04T11:35:03;1.00;;;0.30;;
29814;SDS011;16708;50.426;7.664;2024-02-04T11:39:58;0.60;;;0.30;;
29814;SDS011;16708;50.426;7.664;2024-02-04T11:49:45;0.50;;;0.20;;
29814;SDS011;16708;50.426;7.664;2024-02-04T11:54:39;0.40;;;0.30;;
29814;SDS011;16708;50.426;7.664;2024-02-04T11:59:33;1.10;;;0.40;;
29814;SDS011;16708;50.426;7.664;2024-02-04T12:04:28;10.20;;;3.60;;
29814;SDS011;16708;50.426;7.664;2024-02-04T12:09:22;2.30;;;1.00;;
29814;SDS011;16708;50.426;7.664;2024-02-04T12:14:16;0.40;;;0.40;;
29814;SDS011;16708;50.426;7.664;2024-02-04T12:19:10;1.40;;;0.30;;
29814;SDS011;16708;50.426;7.664;2024-02-04T12:24:02;1.30;;;0.80;;
29814;SDS011;16708;50.426;7.664;2024-02-04T12:28:56;0.60;;;0.30;;
29814;SDS011;16708;50.426;7.664;2024-02-04T12:33:51;0.70;;;0.30;;
29814;SDS011;16708;50.426;7.664;2024-02-04T12:43:38;0.80;;;0.60;;
29814;SDS011;16708;50.426;7.664;2024-02-04T12:48:32;0.60;;;0.40;;
29814;SDS011;16708;50.426;7.664;2024-02-04T12:53:28;0.30;;;0.30;;
29814;SDS011;16708;50.426;7.664;2024-02-04T13:03:12;2.00;;;0.40;;
29814;SDS011;16708;50.426;7.664;2024-02-04T13:08:06;0.70;;;0.30;;
29814;SDS011;16708;50.426;7.664;2024-02-04T13:13:01;0.30;;;0.30;;
29814;SDS011;16708;50.426;7.664;2024-02-04T13:17:54;0.60;;;0.30;;
29814;SDS011;16708;50.426;7.664;2024-02-04T13:22:48;1.00;;;0.80;;
29814;SDS011;16708;50.426;7.664;2024-02-04T13:27:43;1.50;;;0.70;;
29814;SDS011;16708;50.426;7.664;2024-02-04T13:32:37;0.70;;;0.50;;
29814;SDS011;16708;50.426;7.664;2024-02-04T13:37:30;0.60;;;0.40;;
29814;SDS011;16708;50.426;7.664;2024-02-04T13:47:19;1.00;;;0.50;;
29814;SDS011;16708;50.426;7.664;2024-02-04T13:52:13;0.90;;;0.40;;
29814;SDS011;16708;50.426;7.664;2024-02-04T13:57:07;1.40;;;0.90;;
29814;SDS011;16708;50.426;7.664;2024-02-04T14:02:01;2.00;;;0.40;;
29814;SDS011;16708;50.426;7.664;2024-02-04T14:06:55;1.60;;;0.80;;
29814;SDS011;16708;50.426;7.664;2024-02-04T14:11:49;1.90;;;1.00;;
29814;SDS011;16708;50.426;7.664;2024-02-04T14:16:43;1.90;;;1.10;;
29814;SDS011;16708;50.426;7.664;2024-02-04T14:21:38;2.50;;;1.10;;
29814;SDS011;16708;50.426;7.664;2024-02-04T14:26:32;1.50;;;0.80;;
29814;SDS011;16708;50.426;7.664;2024-02-04T14:31:26;2.10;;;0.80;;
29814;SDS011;16708;50.426;7.664;2024-02-04T14:36:20;0.90;;;0.50;;
29814;SDS011;16708;50.426;7.664;2024-02-04T14:41:14;0.80;;;0.40;;
29814;SDS011;16708;50.426;7.664;2024-02-04T14:46:08;1.20;;;0.60;;
29814;SDS011;16708;50.426;7.664;2024-02-04T14:51:02;1.30;;;0.50;;
29814;SDS011;16708;50.426;7.664;2024-02-04T14:55:56;0.90;;;0.60;;
29814;SDS011;16708;50.426;7.664;2024-02-04T15:00:50;1.80;;;0.60;;
29814;SDS011;16708;50.426;7.664;2024-02-04T15:05:44;1.60;;;1.00;;
29814;SDS011;16708;50.426;7.664;2024-02-04T15:10:38;5.00;;;2.40;;
29814;SDS011;16708;50.426;7.664;2024-02-04T15:15:32;0.80;;;0.60;;
29814;SDS011;16708;50.426;7.664;2024-02-04T15:20:27;1.60;;;1.30;;
29814;SDS011;16708;50.426;7.664;2024-02-04T15:25:21;1.50;;;0.80;;
29814;SDS011;16708;50.426;7.664;2024-02-04T15:30:13;0.80;;;0.60;;
29814;SDS011;16708;50.426;7.664;2024-02-04T15:35:07;1.90;;;0.70;;
29814;SDS011;16708;50.426;7.664;2024-02-04T15:40:02;1.30;;;0.90;;
29814;SDS011;16708;50.426;7.664;2024-02-04T15:44:56;0.50;;;0.50;;
29814;SDS011;16708;50.426;7.664;2024-02-04T15:49:50;0.70;;;0.50;;
29814;SDS011;16708;50.426;7.664;2024-02-04T15:54:46;2.50;;;0.70;;
29814;SDS011;16708;50.426;7.664;2024-02-04T15:59:39;3.00;;;1.30;;
29814;SDS011;16708;50.426;7.664;2024-02-04T16:04:33;7.70;;;4.10;;
29814;SDS011;16708;50.426;7.664;2024-02-04T16:09:28;0.70;;;0.60;;
29814;SDS011;16708;50.426;7.664;2024-02-04T16:14:22;2.10;;;0.60;;
29814;SDS011;16708;50.426;7.664;2024-02-04T16:19:16;1.10;;;0.60;;
29814;SDS011;16708;50.426;7.664;2024-02-04T16:24:10;2.10;;;0.60;;
29814;SDS011;16708;50.426;7.664;2024-02-04T16:29:04;1.40;;;0.60;;
29814;SDS011;16708;50.426;7.664;2024-02-04T16:33:58;2.00;;;0.70;;
29814;SDS011;16708;50.426;7.664;2024-02-04T16:38:53;0.60;;;0.50;;
29814;SDS011;16708;50.426;7.664;2024-02-04T16:43:44;1.80;;;0.70;;
29814;SDS011;16708;50.426;7.664;2024-02-04T16:48:38;0.50;;;0.50;;
29814;SDS011;16708;50.426;7.664;2024-02-04T16:53:33;0.60;;;0.50;;
29814;SDS011;16708;50.426;7.664;2024-02-04T16:58:27;0.60;;;0.40;;
29814;SDS011;16708;50.426;7.664;2024-02-04T17:03:21;0.70;;;0.50;;
29814;SDS011;16708;50.426;7.664;2024-02-04T17:08:15;1.00;;;0.40;;
29814;SDS011;16708;50.426;7.664;2024-02-04T17:18:03;0.60;;;0.40;;
29814;SDS011;16708;50.426;7.664;2024-02-04T17:22:58;0.30;;;0.30;;
29814;SDS011;16708;50.426;7.664;2024-02-04T17:27:52;0.60;;;0.40;;
29814;SDS011;16708;50.426;7.664;2024-02-04T17:32:46;0.70;;;0.40;;
29814;SDS011;16708;50.426;7.664;2024-02-04T17:37:40;0.60;;;0.30;;
29814;SDS011;16708;50.426;7.664;2024-02-04T17:42:34;0.80;;;0.40;;
29814;SDS011;16708;50.426;7.664;2024-02-04T17:47:29;1.00;;;0.40;;
29814;SDS011;16708;50.426;7.664;2024-02-04T17:52:23;0.40;;;0.40;;
29814;SDS011;16708;50.426;7.664;2024-02-04T17:57:17;0.40;;;0.30;;
29814;SDS011;16708;50.426;7.664;2024-02-04T18:02:12;0.50;;;0.30;;
29814;SDS011;16708;50.426;7.664;2024-02-04T18:07:05;1.90;;;0.50;;
29814;SDS011;16708;50.426;7.664;2024-02-04T18:11:59;1.00;;;0.60;;
29814;SDS011;16708;50.426;7.664;2024-02-04T18:16:54;0.50;;;0.30;;
29814;SDS011;16708;50.426;7.664;2024-02-04T18:21:48;0.90;;;0.30;;
29814;SDS011;16708;50.426;7.664;2024-02-04T18:26:42;1.20;;;0.50;;
29814;SDS011;16708;50.426;7.664;2024-02-04T18:31:36;1.50;;;0.40;;
29814;SDS011;16708;50.426;7.664;2024-02-04T18:36:30;0.30;;;0.30;;
29814;SDS011;16708;50.426;7.664;2024-02-04T18:41:25;1.00;;;0.30;;
29814;SDS011;16708;50.426;7.664;2024-02-04T18:46:18;0.30;;;0.20;;
29814;SDS011;16708;50.426;7.664;2024-02-04T18:56:05;0.80;;;0.30;;
29814;SDS011;16708;50.426;7.664;2024-02-04T19:01:00;1.20;;;0.40;;
29814;SDS011;16708;50.426;7.664;2024-02-04T19:05:54;0.50;;;0.20;;
29814;SDS011;16708;50.426;7.664;2024-02-04T19:10:47;0.50;;;0.20;;
29814;SDS011;16708;50.426;7.664;2024-02-04T19:15:41;1.00;;;0.10;;
29814;SDS011;16708;50.426;7.664;2024-02-04T19:20:36;0.30;;;0.20;;
29814;SDS011;16708;50.426;7.664;2024-02-04T19:25:24;0.70;;;0.30;;
29814;SDS011;16708;50.426;7.664;2024-02-04T19:30:19;0.10;;;0.10;;
29814;SDS011;16708;50.426;7.664;2024-02-04T19:35:10;0.20;;;0.20;;
29814;SDS011;16708;50.426;7.664;2024-02-04T19:40:03;0.20;;;0.20;;
29814;SDS011;16708;50.426;7.664;2024-02-04T19:44:57;0.20;;;0.20;;
29814;SDS011;16708;50.426;7.664;2024-02-04T19:49:51;0.10;;;0.10;;
29814;SDS011;16708;50.426;7.664;2024-02-04T19:54:45;0.80;;;0.20;;
29814;SDS011;16708;50.426;7.664;2024-02-04T19:59:39;0.30;;;0.20;;
29814;SDS011;16708;50.426;7.664;2024-02-04T20:04:34;0.80;;;0.20;;
29814;SDS011;16708;50.426;7.664;2024-02-04T20:09:28;1.40;;;0.30;;
29814;SDS011;16708;50.426;7.664;2024-02-04T20:14:22;0.50;;;0.20;;
29814;SDS011;16708;50.426;7.664;2024-02-04T20:19:17;0.20;;;0.20;;
29814;SDS011;16708;50.426;7.664;2024-02-04T20:24:11;0.30;;;0.20;;
29814;SDS011;16708;50.426;7.664;2024-02-04T20:33:59;1.10;;;0.20;;
29814;SDS011;16708;50.426;7.664;2024-02-04T20:38:53;0.30;;;0.20;;
29814;SDS011;16708;50.426;7.664;2024-02-04T20:43:48;0.50;;;0.20;;
29814;SDS011;16708;50.426;7.664;2024-02-04T20:53:36;0.50;;;0.20;;
29814;SDS011;16708;50.426;7.664;2024-02-04T20:58:29;0.60;;;0.60;;
29814;SDS011;16708;50.426;7.664;2024-02-04T21:03:23;0.60;;;0.20;;
29814;SDS011;16708;50.426;7.664;2024-02-04T21:08:17;0.20;;;0.20;;
29814;SDS011;16708;50.426;7.664;2024-02-04T21:13:11;0.10;;;0.10;;
29814;SDS011;16708;50.426;7.664;2024-02-04T21:18:05;0.20;;;0.20;;
29814;SDS011;16708;50.426;7.664;2024-02-04T21:22:59;0.50;;;0.30;;
29814;SDS011;16708;50.426;7.664;2024-02-04T21:27:51;1.00;;;0.30;;
29814;SDS011;16708;50.426;7.664;2024-02-04T21:32:45;1.10;;;0.20;;
29814;SDS011;16708;50.426;7.664;2024-02-04T21:37:39;2.50;;;0.80;;
29814;SDS011;16708;50.426;7.664;2024-02-04T21:42:33;0.30;;;0.20;;
29814;SDS011;16708;50.426;7.664;2024-02-04T21:47:27;0.10;;;0.10;;
29814;SDS011;16708;50.426;7.664;2024-02-04T21:52:21;0.20;;;0.10;;
29814;SDS011;16708;50.426;7.664;2024-02-04T21:57:15;1.80;;;0.20;;
29814;SDS011;16708;50.426;7.664;2024-02-04T22:02:10;2.40;;;0.20;;
29814;SDS011;16708;50.426;7.664;2024-02-04T22:07:04;0.30;;;0.20;;
29814;SDS011;16708;50.426;7.664;2024-02-04T22:11:58;0.10;;;0.10;;
29814;SDS011;16708;50.426;7.664;2024-02-04T22:16:52;0.80;;;0.10;;
29814;SDS011;16708;50.426;7.664;2024-02-04T22:21:46;0.60;;;0.20;;
29814;SDS011;16708;50.426;7.664;2024-02-04T22:26:40;0.30;;;0.20;;
29814;SDS011;16708;50.426;7.664;2024-02-04T22:31:33;0.20;;;0.20;;
29814;SDS011;16708;50.426;7.664;2024-02-04T22:36:28;0.70;;;0.20;;
29814;SDS011;16708;50.426;7.664;2024-02-04T22:41:22;1.30;;;0.20;;
29814;SDS011;16708;50.426;7.664;2024-02-04T22:46:16;0.20;;;0.20;;
29814;SDS011;16708;50.426;7.664;2024-02-04T22:51:10;0.90;;;0.20;;
29814;SDS011;16708;50.426;7.664;2024-02-04T22:56:04;0.90;;;0.20;;
29814;SDS011;16708;50.426;7.664;2024-02-04T23:00:59;0.20;;;0.20;;
29814;SDS011;16708;50.426;7.664;2024-02-04T23:05:53;0.50;;;0.20;;
29814;SDS011;16708;50.426;7.664;2024-02-04T23:10:48;0.20;;;0.20;;
29814;SDS011;16708;50.426;7.664;2024-02-04T23:15:42;0.30;;;0.20;;
29814;SDS011;16708;50.426;7.664;2024-02-04T23:20:34;2.30;;;0.20;;
29814;SDS011;16708;50.426;7.664;2024-02-04T23:25:28;0.10;;;0.10;;
29814;SDS011;16708;50.426;7.664;2024-02-04T23:30:23;0.10;;;0.10;;
29814;SDS011;16708;50.426;7.664;2024-02-04T23:35:17;0.50;;;0.10;;
29814;SDS011;16708;50.426;7.664;2024-02-04T23:40:11;0.70;;;0.00;;
29814;SDS011;16708;50.426;7.664;2024-02-04T23:45:05;0.20;;;0.10;;
29814;SDS011;16708;50.426;7.664;2024-02-04T23:49:58;1.70;;;0.10;;
29814;SDS011;16708;50.426;7.664;2024-02-04T23:54:53;0.10;;;0.10;;
29814;SDS011;16708;50.426;7.664;2024-02-04T23:59:47;0.50;;;0.20;;
